アティラウ の空港の天気 - METARとTAF

Atyrau Airport ( UATG / GUW ) - カザフスタン Atyrau
飛行場実況気象(Metar)
観測時間12/10 10:00 ORAT (12/10 05:00 UTC)
風向・風速東 5m/s
視程5000m
天気現象もや
全天の8割程度の雲 雲底高度 180m
気温-2℃
湿度100%
気圧1024hPa
METARUATG 100500Z 08005MPS 5000 BR BKN006 M02/M02 Q1024 R14/19//65 NOSIG RMK QBB200 QFE770/1027
過去の天気等 Google飛行場航空写真 Wunderground天気予報

過去48時間のMETAR

飛行場予報(TAF)
発表時間: 12/10 04:03 ORAT (12/09 23:03 UTC)
予報対象時間: 10日5時 ORAT ~ 11日5時 ORAT
風向・風速北東 5m/s
視程3000m
天気現象もや
全天を覆う雲 雲底高度 90m
10日5時 ORAT ~ 10日11時 ORAT に一時的に
視程300m
天気現象氷霧
全天を覆う雲 鉛直視程 30m
10日12時 ORAT ~ 10日13時 ORAT に徐々に
風向・風速東 7m/s
視程10km以上
天気現象運行に影響にある天気現象が終了
全天の8割程度の雲 雲底高度 210m
TAF UATG 092303Z 1000/1024 05005MPS 3000 BR OVC003 TX01/1011Z TNM03/1003Z
TEMPO 1000/1006 0300 FZFG VV001
BECMG 1007/1008 10007MPS 9999 NSW BKN007